createdAt,value
2022-12-23T00:02:46.269Z,11.60
2022-12-23T00:05:49.840Z,8.20
2022-12-23T00:08:58.877Z,11.20
2022-12-23T00:12:19.895Z,10.00
2022-12-23T00:15:23.499Z,9.60
2022-12-23T00:18:26.819Z,9.00
2022-12-23T00:21:30.057Z,9.00
2022-12-23T00:24:34.709Z,10.00
2022-12-23T00:27:38.642Z,8.20
2022-12-23T00:30:47.994Z,12.60
2022-12-23T00:33:53.592Z,9.75
2022-12-23T00:36:56.876Z,11.75
2022-12-23T00:40:19.538Z,9.25
2022-12-23T00:43:22.965Z,9.00
2022-12-23T00:46:26.365Z,10.20
2022-12-23T00:49:43.498Z,8.00
2022-12-23T00:52:46.820Z,11.00
2022-12-23T00:55:52.133Z,12.75
2022-12-23T00:58:55.471Z,16.75
2022-12-23T01:02:16.637Z,13.00
2022-12-23T01:08:50.990Z,14.60
2022-12-23T01:11:54.719Z,15.00
2022-12-23T01:14:57.999Z,13.00
2022-12-23T01:18:01.273Z,16.00
2022-12-23T01:21:05.915Z,15.00
2022-12-23T01:24:10.686Z,18.00
2022-12-23T01:27:13.959Z,14.00
2022-12-23T01:30:17.422Z,17.00
2022-12-23T01:33:21.359Z,14.50
2022-12-23T01:36:24.790Z,15.00
2022-12-23T01:39:29.767Z,13.00
2022-12-23T01:42:45.140Z,15.00
2022-12-23T01:45:48.657Z,12.00
2022-12-23T01:48:54.128Z,12.00
2022-12-23T01:51:57.691Z,14.50
2022-12-23T01:55:02.545Z,10.80
2022-12-23T01:58:11.544Z,11.00
2022-12-23T02:01:32.598Z,10.00
2022-12-23T02:04:36.086Z,10.60
2022-12-23T02:07:57.071Z,9.60
2022-12-23T02:11:22.094Z,7.50
2022-12-23T02:14:56.686Z,8.40
2022-12-23T02:18:11.602Z,9.60
2022-12-23T02:21:28.793Z,6.00
2022-12-23T02:25:10.198Z,10.00
2022-12-23T02:28:41.693Z,10.00
2022-12-23T02:31:55.731Z,9.00
2022-12-23T02:35:09.650Z,6.80
2022-12-23T02:38:17.382Z,7.00
2022-12-23T02:41:29.911Z,7.00
2022-12-23T02:44:37.415Z,7.20
2022-12-23T02:47:46.124Z,9.60
2022-12-23T02:50:52.862Z,9.80
2022-12-23T02:54:00.674Z,8.00
2022-12-23T02:57:07.352Z,9.50
2022-12-23T03:00:12.685Z,10.00
2022-12-23T03:03:21.288Z,6.60
2022-12-23T03:06:28.340Z,10.00
2022-12-23T03:09:44.493Z,9.20
2022-12-23T03:12:59.118Z,8.00
2022-12-23T03:16:12.670Z,9.00
2022-12-23T03:19:24.657Z,8.20
2022-12-23T03:22:37.533Z,9.40
2022-12-23T03:25:48.382Z,9.00
2022-12-23T03:28:58.916Z,9.20
2022-12-23T03:32:04.787Z,9.00
2022-12-23T03:35:14.071Z,9.00
2022-12-23T03:38:20.330Z,10.00
2022-12-23T03:41:29.130Z,9.20
2022-12-23T03:44:37.479Z,9.00
2022-12-23T03:47:45.759Z,8.00
2022-12-23T03:50:56.009Z,11.00
2022-12-23T03:54:02.957Z,7.40
2022-12-23T03:57:08.729Z,9.40
2022-12-23T04:00:13.097Z,8.00
2022-12-23T04:03:23.456Z,9.40
2022-12-23T04:06:33.276Z,7.00
2022-12-23T04:09:37.967Z,6.60
2022-12-23T04:12:42.234Z,8.00
2022-12-23T04:15:46.130Z,8.60
2022-12-23T04:18:49.809Z,9.00
2022-12-23T04:21:55.378Z,9.40
2022-12-23T04:24:58.684Z,11.25
2022-12-23T04:28:02.414Z,11.40
2022-12-23T04:31:06.146Z,8.40
2022-12-23T04:34:09.408Z,10.20
2022-12-23T04:37:14.257Z,8.00
2022-12-23T04:40:17.719Z,9.20
2022-12-23T04:43:20.979Z,8.00
2022-12-23T04:46:24.318Z,8.60
2022-12-23T04:49:27.696Z,9.60
2022-12-23T04:52:32.393Z,11.00
2022-12-23T04:55:36.043Z,8.00
2022-12-23T04:58:39.647Z,10.00
2022-12-23T05:01:43.227Z,10.20
2022-12-23T05:04:46.564Z,14.00
2022-12-23T05:07:52.145Z,12.60
2022-12-23T05:10:55.720Z,11.00
2022-12-23T05:13:59.000Z,10.60
2022-12-23T05:17:07.425Z,11.00
2022-12-23T05:20:12.340Z,13.00
2022-12-23T05:23:17.058Z,13.00
2022-12-23T05:26:20.557Z,9.75
2022-12-23T05:29:23.848Z,12.00
2022-12-23T05:32:27.457Z,12.33
2022-12-23T05:35:31.038Z,11.60
2022-12-23T05:38:35.996Z,11.00
2022-12-23T05:41:39.543Z,9.80
2022-12-23T05:44:42.823Z,10.00
2022-12-23T05:47:46.061Z,10.60
2022-12-23T05:50:50.853Z,9.40
2022-12-23T05:53:55.533Z,8.00
2022-12-23T05:56:59.154Z,7.00
2022-12-23T06:00:02.482Z,7.00
2022-12-23T06:03:15.688Z,8.00
2022-12-23T06:06:19.277Z,8.00
2022-12-23T06:09:24.033Z,7.00
2022-12-23T06:12:27.343Z,9.00
2022-12-23T06:15:30.656Z,7.50
2022-12-23T06:18:33.914Z,8.00
2022-12-23T06:21:37.586Z,10.00
2022-12-23T06:24:42.631Z,11.20
2022-12-23T06:27:46.006Z,10.00
2022-12-23T06:30:53.818Z,10.80
2022-12-23T06:33:57.109Z,10.00
2022-12-23T06:37:00.780Z,11.00
2022-12-23T06:40:06.896Z,10.60
2022-12-23T06:43:11.503Z,10.00
2022-12-23T06:46:15.545Z,15.50
2022-12-23T06:49:19.089Z,11.75
2022-12-23T06:52:23.202Z,12.60
2022-12-23T06:55:27.943Z,9.20
2022-12-23T06:58:32.436Z,10.40
2022-12-23T07:01:35.823Z,10.00
2022-12-23T07:04:39.205Z,12.00
2022-12-23T07:07:42.857Z,12.00
2022-12-23T07:10:48.169Z,14.00
2022-12-23T07:13:51.516Z,11.00
2022-12-23T07:16:54.890Z,44.80
2022-12-23T07:19:58.277Z,24.00
2022-12-23T07:23:01.591Z,23.67
2022-12-23T07:26:06.817Z,19.40
2022-12-23T07:29:10.116Z,27.60
2022-12-23T07:32:13.373Z,19.00
2022-12-23T07:35:16.956Z,18.00
2022-12-23T07:38:20.189Z,29.00
2022-12-23T07:41:24.943Z,34.20
2022-12-23T07:44:28.227Z,27.40
2022-12-23T07:47:31.504Z,26.75
2022-12-23T07:50:35.181Z,17.00
2022-12-23T07:53:38.520Z,21.40
2022-12-23T07:56:43.538Z,10.20
2022-12-23T07:59:47.097Z,11.75
2022-12-23T08:02:50.663Z,10.00
2022-12-23T08:06:00.678Z,13.80
2022-12-23T08:09:04.478Z,22.00
2022-12-23T08:12:09.300Z,20.50
2022-12-23T08:15:12.774Z,25.00
2022-12-23T08:18:16.021Z,25.50
2022-12-23T08:21:21.387Z,16.40
2022-12-23T08:24:24.753Z,15.00
2022-12-23T08:27:29.620Z,19.00
2022-12-23T08:30:33.111Z,17.00
2022-12-23T08:33:38.461Z,17.80
2022-12-23T08:36:41.882Z,21.60
2022-12-23T08:39:45.444Z,16.20
2022-12-23T08:42:50.147Z,15.00
2022-12-23T08:45:53.619Z,19.00
2022-12-23T08:48:57.147Z,18.40
2022-12-23T08:52:00.756Z,18.40
2022-12-23T08:55:04.145Z,17.80
2022-12-23T08:58:09.457Z,19.00
2022-12-23T09:01:15.122Z,19.60
2022-12-23T09:04:18.968Z,20.00
2022-12-23T09:07:25.520Z,16.00
2022-12-23T09:10:30.015Z,14.20
2022-12-23T09:13:36.036Z,13.40
2022-12-23T09:16:41.385Z,10.20
2022-12-23T09:19:48.703Z,10.80
2022-12-23T09:22:56.667Z,12.00
2022-12-23T09:26:00.193Z,11.00
2022-12-23T09:29:04.891Z,10.00
2022-12-23T09:32:08.169Z,10.00
2022-12-23T09:35:11.709Z,8.60
2022-12-23T09:38:14.997Z,12.50
2022-12-23T09:41:32.366Z,7.00
2022-12-23T09:44:59.064Z,9.00
2022-12-23T09:48:02.922Z,9.00
2022-12-23T09:51:07.222Z,7.00
2022-12-23T09:54:17.771Z,7.00
2022-12-23T09:57:26.489Z,9.00
2022-12-23T10:00:40.981Z,9.00
2022-12-23T10:04:11.041Z,12.00
2022-12-23T10:07:29.882Z,10.60
2022-12-23T10:10:38.759Z,9.00
2022-12-23T10:13:46.517Z,9.00
2022-12-23T10:16:56.564Z,7.00
2022-12-23T10:20:03.579Z,5.20
2022-12-23T10:23:14.794Z,8.00
2022-12-23T10:26:24.494Z,8.00
2022-12-23T10:29:32.277Z,4.80
2022-12-23T10:32:51.422Z,7.00
2022-12-23T10:36:06.606Z,9.40
2022-12-23T10:39:22.196Z,11.00
2022-12-23T10:42:34.870Z,10.40
2022-12-23T10:45:49.695Z,10.00
2022-12-23T10:49:04.814Z,9.00
2022-12-23T10:52:15.739Z,6.60
2022-12-23T10:55:29.827Z,7.00
2022-12-23T10:58:39.523Z,8.00
2022-12-23T11:01:48.484Z,10.00
2022-12-23T11:04:53.644Z,9.00
2022-12-23T11:07:57.163Z,8.00
2022-12-23T11:11:01.877Z,7.25
2022-12-23T11:14:05.131Z,7.40
2022-12-23T11:17:21.048Z,10.50
2022-12-23T11:20:25.877Z,6.80
2022-12-23T11:23:31.455Z,8.00
2022-12-23T11:26:36.372Z,7.20
2022-12-23T11:29:45.231Z,6.00
2022-12-23T11:32:48.609Z,7.75
2022-12-23T11:36:03.764Z,7.00
2022-12-23T11:39:27.633Z,8.40
2022-12-23T11:42:32.421Z,7.00
2022-12-23T11:45:38.341Z,6.00
2022-12-23T11:48:41.633Z,7.00
2022-12-23T11:51:48.012Z,6.20
2022-12-23T11:54:54.787Z,9.40
2022-12-23T11:57:58.181Z,5.00
2022-12-23T12:01:09.412Z,7.80
2022-12-23T12:04:22.408Z,7.00
2022-12-23T12:07:28.165Z,7.00
2022-12-23T12:10:35.622Z,8.00
2022-12-23T12:13:41.463Z,7.60
2022-12-23T12:16:56.635Z,7.00
2022-12-23T12:20:06.056Z,8.00
2022-12-23T12:23:16.858Z,8.60
2022-12-23T12:26:27.321Z,7.00
2022-12-23T12:29:39.270Z,8.00
2022-12-23T12:32:52.149Z,10.00
2022-12-23T12:36:06.590Z,9.00
2022-12-23T12:39:19.710Z,8.75
2022-12-23T12:42:30.261Z,8.50
2022-12-23T12:45:40.384Z,9.00
2022-12-23T12:48:50.050Z,9.00
2022-12-23T12:52:03.743Z,10.50
2022-12-23T12:55:20.679Z,12.33
2022-12-23T12:58:25.878Z,13.60
2022-12-23T13:01:40.780Z,11.75
2022-12-23T13:05:20.948Z,11.60
2022-12-23T13:08:41.695Z,13.00
2022-12-23T13:11:56.321Z,9.20
2022-12-23T13:15:05.676Z,11.40
2022-12-23T13:18:20.920Z,11.40
2022-12-23T13:21:33.607Z,9.00
2022-12-23T13:24:51.110Z,6.20
2022-12-23T13:27:58.750Z,7.40
2022-12-23T13:31:12.340Z,5.33
2022-12-23T13:34:28.215Z,5.80
2022-12-23T13:37:40.904Z,10.40
2022-12-23T13:40:55.344Z,6.50
2022-12-23T13:44:02.251Z,7.00
2022-12-23T13:47:13.567Z,8.50
2022-12-23T13:50:23.382Z,8.00
2022-12-23T13:53:37.095Z,8.00
2022-12-23T13:56:44.397Z,7.00
2022-12-23T14:00:04.903Z,7.60
2022-12-23T14:03:23.776Z,7.00
2022-12-23T14:06:45.224Z,8.20
2022-12-23T14:09:53.310Z,9.00
2022-12-23T14:13:02.958Z,9.00
2022-12-23T14:16:36.296Z,7.60
2022-12-23T14:20:03.576Z,7.00
2022-12-23T14:23:22.744Z,6.00
2022-12-23T14:26:56.704Z,9.00
2022-12-23T14:30:09.003Z,11.00
2022-12-23T14:33:24.965Z,8.80
2022-12-23T14:36:28.969Z,9.40
2022-12-23T14:39:33.938Z,8.00
2022-12-23T14:42:42.650Z,11.60
2022-12-23T14:45:46.160Z,11.40
2022-12-23T14:49:38.904Z,11.00
2022-12-23T14:53:02.898Z,10.00
2022-12-23T14:56:13.508Z,15.00
2022-12-23T14:59:28.144Z,15.40
2022-12-23T15:02:34.962Z,20.00
2022-12-23T15:05:39.290Z,13.60
2022-12-23T15:08:44.946Z,14.00
2022-12-23T15:11:48.886Z,14.40
2022-12-23T15:14:54.849Z,15.50
2022-12-23T15:18:02.971Z,11.20
2022-12-23T15:21:13.213Z,10.00
2022-12-23T15:24:19.800Z,11.00
2022-12-23T15:27:28.448Z,11.00
2022-12-23T15:30:38.262Z,11.00
2022-12-23T15:37:11.814Z,10.00
2022-12-23T15:40:27.039Z,9.50
2022-12-23T15:43:31.110Z,15.00
2022-12-23T15:46:34.409Z,11.00
2022-12-23T15:49:37.709Z,11.00
2022-12-23T15:52:44.551Z,14.40
2022-12-23T15:55:50.760Z,10.50
2022-12-23T15:58:55.156Z,11.00
2022-12-23T16:01:59.086Z,11.00
2022-12-23T16:05:05.339Z,11.00
2022-12-23T16:08:26.727Z,10.00
2022-12-23T16:11:52.921Z,11.20
2022-12-23T16:14:57.458Z,15.25
2022-12-23T16:18:14.379Z,11.20
2022-12-23T16:21:17.621Z,13.00
2022-12-23T16:24:22.046Z,11.50
2022-12-23T16:27:35.795Z,13.40
2022-12-23T16:30:42.834Z,12.80
2022-12-23T16:33:50.521Z,29.60
2022-12-23T16:36:53.876Z,18.25
2022-12-23T16:39:57.227Z,19.00
2022-12-23T16:43:02.055Z,16.50
2022-12-23T16:46:06.596Z,25.80
2022-12-23T16:49:16.105Z,39.80
2022-12-23T16:52:25.503Z,34.25
2022-12-23T16:55:28.748Z,22.20
2022-12-23T16:58:33.470Z,17.60
2022-12-23T17:01:39.868Z,18.20
2022-12-23T17:04:43.197Z,21.00
2022-12-23T17:07:47.515Z,20.40
2022-12-23T17:10:52.066Z,26.00
2022-12-23T17:14:03.457Z,21.60
2022-12-23T17:17:15.625Z,23.20
2022-12-23T17:20:19.551Z,23.00
2022-12-23T17:23:28.294Z,25.60
2022-12-23T17:26:31.819Z,27.00
2022-12-23T17:29:36.625Z,25.00
2022-12-23T17:32:40.129Z,24.00
2022-12-23T17:35:43.525Z,22.00
2022-12-23T17:38:46.741Z,23.00
2022-12-23T17:41:50.797Z,22.80
2022-12-23T17:44:55.615Z,34.40
2022-12-23T17:47:59.102Z,23.00
2022-12-23T17:51:02.741Z,20.00
2022-12-23T17:54:06.563Z,26.40
2022-12-23T17:57:19.384Z,24.80
2022-12-23T18:00:33.995Z,19.00
2022-12-23T18:03:37.655Z,31.60
2022-12-23T18:06:41.004Z,41.00
2022-12-23T18:09:44.379Z,31.60
2022-12-23T18:12:50.885Z,32.20
2022-12-23T18:15:55.486Z,27.40
2022-12-23T18:18:58.974Z,33.00
2022-12-23T18:22:03.239Z,28.00
2022-12-23T18:25:07.134Z,30.00
2022-12-23T18:28:12.394Z,29.60
2022-12-23T18:31:20.372Z,29.33
2022-12-23T18:34:23.753Z,35.00
2022-12-23T18:37:27.142Z,36.20
2022-12-23T18:40:32.876Z,35.67
2022-12-23T18:43:36.567Z,32.20
2022-12-23T18:46:41.249Z,39.00
2022-12-23T18:49:44.587Z,39.00
2022-12-23T18:52:47.909Z,44.00
2022-12-23T18:55:51.724Z,43.80
2022-12-23T18:58:55.017Z,41.50
2022-12-23T19:02:00.670Z,43.00
2022-12-23T19:05:03.956Z,40.60
2022-12-23T19:08:07.267Z,40.00
2022-12-23T19:11:12.933Z,38.60
2022-12-23T19:14:16.572Z,36.00
2022-12-23T19:17:21.150Z,30.80
2022-12-23T19:20:24.718Z,35.00
2022-12-23T19:23:27.991Z,36.25
2022-12-23T19:26:31.229Z,33.00
2022-12-23T19:29:34.707Z,45.20
2022-12-23T19:32:39.415Z,43.25
2022-12-23T19:35:42.739Z,40.50
2022-12-23T19:38:46.337Z,39.00
2022-12-23T19:41:49.597Z,43.00
2022-12-23T19:44:53.285Z,46.00
2022-12-23T19:47:57.919Z,42.60
2022-12-23T19:51:03.719Z,43.60
2022-12-23T19:54:07.239Z,43.50
2022-12-23T19:57:10.545Z,45.40
2022-12-23T20:00:16.000Z,49.00
2022-12-23T20:03:20.926Z,54.40
2022-12-23T20:06:26.854Z,54.00
2022-12-23T20:09:30.198Z,45.60
2022-12-23T20:12:33.528Z,47.00
2022-12-23T20:15:36.975Z,51.00
2022-12-23T20:18:41.753Z,49.00
2022-12-23T20:21:46.921Z,46.80
2022-12-23T20:24:51.095Z,44.00
2022-12-23T20:27:54.366Z,39.60
2022-12-23T20:31:02.610Z,44.60
2022-12-23T20:34:08.989Z,47.00
2022-12-23T20:37:12.781Z,42.00
2022-12-23T20:40:17.676Z,44.60
2022-12-23T20:43:21.395Z,42.60
2022-12-23T20:46:24.809Z,42.00
2022-12-23T20:49:29.498Z,38.00
2022-12-23T20:52:33.153Z,37.40
2022-12-23T20:55:36.557Z,31.20
2022-12-23T20:58:59.584Z,34.00
2022-12-23T21:02:03.094Z,32.00
2022-12-23T21:05:08.616Z,31.25
2022-12-23T21:08:11.902Z,34.60
2022-12-23T21:11:15.268Z,35.75
2022-12-23T21:14:18.611Z,31.40
2022-12-23T21:17:23.916Z,37.60
2022-12-23T21:20:29.062Z,25.00
2022-12-23T21:23:33.188Z,23.20
2022-12-23T21:26:36.744Z,22.00
2022-12-23T21:29:40.070Z,23.00
2022-12-23T21:32:43.513Z,22.00
2022-12-23T21:35:48.573Z,20.40
2022-12-23T21:38:52.668Z,21.40
2022-12-23T21:41:56.054Z,21.00
2022-12-23T21:44:59.373Z,19.00
2022-12-23T21:48:02.902Z,23.00
2022-12-23T21:51:09.854Z,23.00
2022-12-23T21:54:13.530Z,22.00
2022-12-23T21:57:17.004Z,31.00
2022-12-23T22:00:20.747Z,27.00
2022-12-23T22:03:24.445Z,24.00
2022-12-23T22:06:30.861Z,19.00
2022-12-23T22:09:34.225Z,22.00
2022-12-23T22:12:37.530Z,19.00
2022-12-23T22:15:42.172Z,22.67
2022-12-23T22:18:46.020Z,22.25
2022-12-23T22:21:50.839Z,20.00
2022-12-23T22:24:54.204Z,19.00
2022-12-23T22:27:57.449Z,18.00
2022-12-23T22:31:03.483Z,22.60
2022-12-23T22:34:07.887Z,21.00
2022-12-23T22:37:12.649Z,19.40
2022-12-23T22:40:16.154Z,26.00
2022-12-23T22:43:20.171Z,19.50
2022-12-23T22:46:24.586Z,21.60
2022-12-23T22:49:28.192Z,22.40
2022-12-23T22:52:32.861Z,21.40
2022-12-23T22:55:36.142Z,23.60
2022-12-23T22:58:40.015Z,24.80
2022-12-23T23:01:43.334Z,22.00
2022-12-23T23:04:46.631Z,25.00
2022-12-23T23:07:51.489Z,26.40
2022-12-23T23:10:57.550Z,27.00
2022-12-23T23:14:01.026Z,29.20
2022-12-23T23:17:04.768Z,30.00
2022-12-23T23:20:09.502Z,31.40
2022-12-23T23:23:14.385Z,34.00
2022-12-23T23:26:18.863Z,37.40
2022-12-23T23:29:22.140Z,31.20
2022-12-23T23:32:25.410Z,32.00
2022-12-23T23:35:29.139Z,37.00
2022-12-23T23:38:35.622Z,32.25
2022-12-23T23:41:38.934Z,37.80
2022-12-23T23:44:42.432Z,33.60
2022-12-23T23:47:45.827Z,35.60
2022-12-23T23:50:49.405Z,33.60
2022-12-23T23:53:54.069Z,27.50
2022-12-23T23:56:57.317Z,28.00
